Time;durP1;ratioP1;P1;durP2;ratioP2;P2;SDS_P1;SDS_P2;PMS_P1;PMS_P2;Temp;Humidity;BMP_temperature;BMP_pressure;BME280_temperature;BME280_humidity;BME280_pressure;Samples;Min_cycle;Max_cycle;Signal;HPM_P1;HPM_P2
2022/08/15 00:01:54;;;;;;;6.80;4.40;;;;;;;25.02;54.73;100232.28;6253511;28;20045;-80
2022/08/15 00:04:56;;;;;;;6.10;4.30;;;;;;;24.96;54.55;100233.03;6254478;28;20046;-80
2022/08/15 00:07:58;;;;;;;6.35;4.28;;;;;;;24.90;54.50;100234.63;6254077;28;20045;-80
2022/08/15 00:11:04;;;;;;;7.15;4.88;;;;;;;24.84;54.61;100229.97;6255587;28;20079;-80
2022/08/15 00:14:09;;;;;;;8.63;4.78;;;;;;;24.79;54.41;100227.03;6254752;28;20058;-80
2022/08/15 00:17:11;;;;;;;8.93;4.47;;;;;;;24.74;54.72;100232.97;6254158;28;20045;-80
2022/08/15 00:20:15;;;;;;;5.57;4.13;;;;;;;24.69;54.26;100226.47;6253620;28;20406;-79
2022/08/15 00:23:18;;;;;;;8.75;4.15;;;;;;;24.66;54.54;100226.84;6253686;28;20049;-80
2022/08/15 00:26:20;;;;;;;5.82;4.18;;;;;;;24.62;54.43;100225.53;6253320;28;20056;-81
2022/08/15 00:29:23;;;;;;;5.88;4.35;;;;;;;24.54;54.31;100219.25;6247445;28;20053;-82
2022/08/15 00:32:25;;;;;;;6.50;4.35;;;;;;;24.53;54.02;100216.78;6236617;28;20485;-80
2022/08/15 00:35:37;;;;;;;6.95;4.28;;;;;;;24.48;54.83;100208.41;6252944;28;20050;-79
2022/08/15 00:38:38;;;;;;;6.78;4.55;;;;;;;24.45;54.32;100206.94;6245658;28;20046;-80
2022/08/15 00:41:40;;;;;;;6.03;4.28;;;;;;;24.43;54.12;100198.22;6228476;28;20050;-79
2022/08/15 00:44:45;;;;;;;6.28;4.15;;;;;;;24.41;54.27;100208.34;6228238;28;20054;-80
2022/08/15 00:48:41;;;;;;;6.30;4.20;;;;;;;24.37;54.53;100204.34;6229052;28;20053;-79
2022/08/15 00:51:15;;;;;;;7.10;4.65;;;;;;;24.34;54.20;100199.31;6240339;28;20419;-80
2022/08/15 00:54:22;;;;;;;5.47;3.83;;;;;;;24.33;54.18;100196.81;6252367;28;20053;-80
2022/08/15 00:57:29;;;;;;;7.05;4.20;;;;;;;24.29;54.70;100202.53;6254670;28;20052;-80
2022/08/15 01:00:34;;;;;;;6.43;4.32;;;;;;;24.22;54.62;100200.78;6256095;28;20057;-80
2022/08/15 01:03:40;;;;;;;4.97;4.00;;;;;;;24.19;54.38;100196.63;6253658;28;20049;-80
2022/08/15 01:06:45;;;;;;;7.25;4.32;;;;;;;24.15;54.18;100197.16;6252249;28;20477;-80
2022/08/15 01:09:49;;;;;;;5.72;4.03;;;;;;;24.14;54.30;100195.50;6251507;28;20046;-81
2022/08/15 01:12:50;;;;;;;6.85;4.63;;;;;;;24.11;54.60;100199.38;6250736;28;20468;-81
2022/08/15 01:15:52;;;;;;;6.03;4.45;;;;;;;24.10;54.64;100196.88;6243380;28;20053;-80
2022/08/15 01:18:54;;;;;;;6.40;4.10;;;;;;;24.06;54.42;100199.09;6252029;28;20049;-81
2022/08/15 01:22:06;;;;;;;8.32;4.30;;;;;;;23.99;54.64;100198.19;6251757;28;20053;-81
2022/08/15 01:25:12;;;;;;;5.70;4.07;;;;;;;23.96;54.83;100202.03;6251329;28;20052;-81
2022/08/15 01:28:17;;;;;;;6.93;4.32;;;;;;;23.91;55.30;100200.94;6251714;28;20489;-80
2022/08/15 01:31:21;;;;;;;8.55;4.38;;;;;;;23.83;55.49;100201.00;6250622;28;20049;-80
2022/08/15 01:34:22;;;;;;;7.20;4.50;;;;;;;23.77;55.57;100200.72;6253265;28;20428;-80
2022/08/15 01:37:24;;;;;;;4.93;3.85;;;;;;;23.76;56.31;100200.91;6252235;28;20052;-81
2022/08/15 01:40:33;;;;;;;7.13;3.97;;;;;;;23.68;56.46;100196.44;6252352;28;20049;-80
2022/08/15 01:43:41;;;;;;;6.82;4.25;;;;;;;23.64;56.44;100195.13;6251949;28;20050;-81
2022/08/15 01:46:49;;;;;;;6.57;4.10;;;;;;;23.57;56.72;100185.25;6251870;28;20068;-80
2022/08/15 01:49:54;;;;;;;6.37;4.50;;;;;;;23.51;56.87;100194.84;6251645;28;20058;-80
2022/08/15 01:53:00;;;;;;;9.85;4.38;;;;;;;23.46;57.05;100183.81;6252264;28;20053;-80
2022/08/15 01:56:08;;;;;;;6.47;4.25;;;;;;;23.44;56.99;100185.88;6251824;28;20049;-81
2022/08/15 01:59:15;;;;;;;5.90;4.18;;;;;;;23.38;57.42;100181.19;6251139;28;20085;-79
2022/08/15 02:02:16;;;;;;;9.68;4.55;;;;;;;23.32;57.78;100174.72;6254141;28;20108;-81
2022/08/15 02:05:17;;;;;;;7.07;4.60;;;;;;;23.26;57.95;100170.91;6251475;28;20485;-81
2022/08/15 02:08:20;;;;;;;5.53;4.50;;;;;;;23.20;58.05;100166.22;6251040;28;20049;-80
2022/08/15 02:11:29;;;;;;;6.53;4.82;;;;;;;23.17;58.15;100166.59;6251194;28;20053;-80
2022/08/15 02:14:33;;;;;;;7.45;4.47;;;;;;;23.15;58.13;100173.16;6252113;28;20578;-81
2022/08/15 02:17:34;;;;;;;6.18;4.25;;;;;;;23.09;58.66;100165.81;6251383;28;20080;-80
2022/08/15 02:20:35;;;;;;;5.28;4.32;;;;;;;23.02;58.76;100168.34;6249788;28;20053;-80
2022/08/15 02:23:37;;;;;;;7.43;4.68;;;;;;;23.01;59.02;100164.00;6252391;28;20053;-81
2022/08/15 02:26:40;;;;;;;8.10;4.75;;;;;;;22.94;59.46;100163.91;6254869;28;20049;-80
2022/08/15 02:29:42;;;;;;;6.93;4.07;;;;;;;22.94;59.37;100155.03;6255844;28;20354;-80
2022/08/15 02:32:46;;;;;;;9.48;5.13;;;;;;;22.91;59.17;100148.16;6255930;28;20061;-81
2022/08/15 02:35:47;;;;;;;6.13;4.05;;;;;;;22.87;59.70;100151.34;6253654;28;20073;-80
2022/08/15 02:38:49;;;;;;;6.70;4.22;;;;;;;22.82;59.47;100151.03;6256062;28;20050;-80
2022/08/15 02:41:52;;;;;;;7.70;4.47;;;;;;;22.75;60.13;100150.88;6255325;28;20057;-80
2022/08/15 02:44:55;;;;;;;8.52;4.85;;;;;;;22.70;60.36;100139.88;6254268;28;20512;-79
2022/08/15 02:47:58;;;;;;;6.65;4.65;;;;;;;22.66;60.32;100141.22;6254248;28;20132;-81
2022/08/15 02:50:59;;;;;;;8.30;4.45;;;;;;;22.63;60.63;100145.09;6254293;28;20524;-80
2022/08/15 02:54:00;;;;;;;8.55;4.55;;;;;;;22.63;60.68;100149.63;6254043;28;20742;-80
2022/08/15 02:57:04;;;;;;;6.18;4.30;;;;;;;22.53;61.10;100147.16;6253572;28;20390;-81
2022/08/15 03:00:11;;;;;;;7.97;4.75;;;;;;;22.52;61.63;100148.16;6254274;28;20061;-81
2022/08/15 03:03:15;;;;;;;6.97;4.88;;;;;;;22.44;61.87;100143.69;6254344;28;20056;-81
2022/08/15 03:06:24;;;;;;;6.25;4.55;;;;;;;22.42;62.34;100143.00;6253650;28;20057;-81
2022/08/15 03:09:26;;;;;;;6.00;4.28;;;;;;;22.35;62.26;100135.88;6253975;28;20057;-80
2022/08/15 03:12:28;;;;;;;6.35;4.10;;;;;;;22.27;62.21;100145.56;6253750;28;20485;-81
2022/08/15 03:15:32;;;;;;;7.25;5.15;;;;;;;22.24;62.63;100145.06;6253338;28;20061;-80
2022/08/15 03:18:36;;;;;;;7.10;5.03;;;;;;;22.24;62.94;100131.69;6253792;28;20046;-81
2022/08/15 03:21:38;;;;;;;7.55;4.13;;;;;;;22.20;63.00;100133.03;6253325;28;20059;-81
2022/08/15 03:24:42;;;;;;;8.00;4.93;;;;;;;22.18;62.91;100129.72;6253331;28;20045;-80
2022/08/15 03:27:45;;;;;;;7.75;4.70;;;;;;;22.17;63.06;100126.22;6253135;28;20049;-80
2022/08/15 03:30:47;;;;;;;6.88;4.88;;;;;;;22.11;63.29;100121.50;6252531;28;20049;-80
2022/08/15 03:33:48;;;;;;;5.13;4.18;;;;;;;22.10;63.43;100122.50;6252837;28;20049;-80
2022/08/15 03:36:51;;;;;;;7.30;5.25;;;;;;;22.07;64.04;100124.69;6251527;28;20053;-79
2022/08/15 03:39:52;;;;;;;5.82;4.57;;;;;;;22.05;63.74;100127.53;6252004;28;20053;-80
2022/08/15 03:42:57;;;;;;;6.63;4.10;;;;;;;22.00;64.00;100124.53;6251505;28;20425;-80
2022/08/15 03:46:02;;;;;;;5.95;4.32;;;;;;;21.94;64.40;100131.44;6251136;28;20049;-80
2022/08/15 03:49:03;;;;;;;8.50;4.88;;;;;;;21.93;64.19;100131.56;6251093;28;20054;-80
2022/08/15 03:52:06;;;;;;;8.82;4.80;;;;;;;21.90;64.25;100130.09;6251220;28;20050;-80
2022/08/15 03:55:08;;;;;;;7.53;4.68;;;;;;;21.89;63.83;100127.56;6250989;28;20045;-80
2022/08/15 03:58:11;;;;;;;9.50;4.35;;;;;;;21.89;64.65;100132.91;6251206;28;20052;-79
2022/08/15 04:01:17;;;;;;;5.93;4.25;;;;;;;21.91;63.95;100130.94;6250517;28;20053;-80
2022/08/15 04:04:18;;;;;;;7.20;4.88;;;;;;;21.84;64.20;100132.59;6250943;28;20425;-80
2022/08/15 04:07:20;;;;;;;6.28;4.50;;;;;;;21.81;64.73;100132.97;6250637;28;20493;-79
2022/08/15 04:10:21;;;;;;;5.40;4.20;;;;;;;21.78;64.95;100136.78;6250253;28;20056;-79
2022/08/15 04:13:25;;;;;;;6.68;4.65;;;;;;;21.73;65.11;100131.94;6250193;28;20416;-80
2022/08/15 04:16:27;;;;;;;7.10;4.30;;;;;;;21.74;65.62;100138.97;6249641;28;20183;-80
2022/08/15 04:19:28;;;;;;;6.97;4.15;;;;;;;21.72;65.52;100130.28;6249250;28;20409;-79
2022/08/15 04:22:34;;;;;;;8.00;4.10;;;;;;;21.75;65.99;100135.28;6248961;28;20061;-80
2022/08/15 04:25:38;;;;;;;7.50;4.55;;;;;;;21.77;65.67;100140.47;6250565;28;20080;-80
2022/08/15 04:28:41;;;;;;;7.15;4.43;;;;;;;21.81;65.47;100132.97;6251229;28;20045;-80
2022/08/15 04:31:43;;;;;;;6.30;3.90;;;;;;;21.78;66.02;100129.59;6250299;28;20504;-77
2022/08/15 04:34:44;;;;;;;6.35;4.05;;;;;;;21.81;66.20;100128.44;6249375;28;20049;-79
2022/08/15 04:37:47;;;;;;;6.40;3.83;;;;;;;21.85;66.17;100119.06;6250186;28;20045;-80
2022/08/15 04:40:49;;;;;;;4.82;3.90;;;;;;;21.89;66.08;100123.06;6250247;28;20050;-79
2022/08/15 04:43:52;;;;;;;5.15;4.00;;;;;;;21.91;66.61;100115.69;6249360;28;20052;-79
2022/08/15 04:46:53;;;;;;;5.25;4.05;;;;;;;21.93;66.75;100116.34;6251080;28;20573;-79
2022/08/15 04:49:54;;;;;;;5.78;4.07;;;;;;;21.97;66.41;100120.34;6250133;28;20057;-79
2022/08/15 04:52:56;;;;;;;4.75;3.67;;;;;;;22.01;66.65;100123.53;6250367;28;20045;-79
2022/08/15 04:55:59;;;;;;;5.07;3.85;;;;;;;22.05;66.89;100116.84;6249406;28;20057;-79
2022/08/15 04:59:02;;;;;;;8.75;3.90;;;;;;;22.06;66.96;100115.00;6249774;28;20041;-79
2022/08/15 05:02:03;;;;;;;6.10;3.83;;;;;;;22.05;67.18;100116.84;6250156;28;20054;-79
2022/08/15 05:05:07;;;;;;;7.35;3.63;;;;;;;22.07;67.30;100114.81;6252556;28;20061;-80
2022/08/15 05:08:08;;;;;;;6.97;3.80;;;;;;;22.06;66.88;100115.00;6256234;28;20421;-79
2022/08/15 05:11:14;;;;;;;5.25;3.55;;;;;;;22.06;67.61;100110.47;6251525;28;20060;-80
2022/08/15 05:14:17;;;;;;;5.18;4.10;;;;;;;22.11;67.75;100105.44;6250490;28;20056;-79
2022/08/15 05:17:18;;;;;;;5.25;3.88;;;;;;;22.13;67.45;100108.81;6251131;28;20052;-79
2022/08/15 05:20:21;;;;;;;5.10;3.88;;;;;;;22.16;67.25;100104.94;6250549;28;20402;-80
2022/08/15 05:23:24;;;;;;;5.57;4.15;;;;;;;22.16;67.19;100097.75;6245055;28;20060;-79
2022/08/15 05:26:26;;;;;;;7.18;4.25;;;;;;;22.19;67.32;100096.59;6237763;28;20042;-79
2022/08/15 05:29:28;;;;;;;10.20;3.53;;;;;;;22.20;67.84;100095.56;6232667;28;20049;-80
2022/08/15 05:32:30;;;;;;;5.13;3.50;;;;;;;22.20;67.71;100103.59;6226972;28;20046;-78
2022/08/15 05:35:31;;;;;;;4.10;3.35;;;;;;;22.20;67.93;100107.09;6227813;28;20052;-79
2022/08/15 05:38:36;;;;;;;5.38;3.90;;;;;;;22.21;68.24;100103.44;6232462;28;20081;-79
2022/08/15 05:41:48;;;;;;;4.53;3.33;;;;;;;22.20;68.41;100093.72;6226143;28;20050;-79
2022/08/15 05:44:56;;;;;;;4.82;3.85;;;;;;;22.22;69.11;100106.97;6226285;28;20049;-79
2022/08/15 05:48:03;;;;;;;6.32;3.60;;;;;;;22.24;68.21;100099.56;6226713;28;20629;-79
2022/08/15 05:51:12;;;;;;;4.43;3.17;;;;;;;22.26;68.06;100100.25;6229950;28;20058;-79
2022/08/15 05:54:20;;;;;;;5.82;3.38;;;;;;;22.26;67.91;100098.41;6226070;28;20138;-79
2022/08/15 05:57:28;;;;;;;5.13;3.78;;;;;;;22.27;68.07;100096.56;6230960;28;20053;-79
2022/08/15 06:00:31;;;;;;;12.38;4.75;;;;;;;22.26;68.27;100100.25;6226094;28;20090;-79
2022/08/15 06:03:38;;;;;;;5.00;3.55;;;;;;;22.27;68.11;100102.75;6225924;28;20049;-79
2022/08/15 06:06:41;;;;;;;4.07;2.95;;;;;;;22.29;68.12;100105.25;6225583;28;20053;-79
2022/08/15 06:09:49;;;;;;;6.10;4.05;;;;;;;22.28;68.31;100103.56;6225986;28;20049;-79
2022/08/15 06:12:52;;;;;;;5.13;3.97;;;;;;;22.31;68.62;100107.75;6226005;28;20058;-80
2022/08/15 06:16:00;;;;;;;6.05;3.42;;;;;;;22.34;68.45;100096.69;6226222;28;20508;-79
2022/08/15 06:19:06;;;;;;;5.10;3.37;;;;;;;22.34;68.30;100102.88;6225712;28;20041;-79
2022/08/15 06:22:28;;;;;;;6.30;3.80;;;;;;;22.35;68.20;100095.69;6230206;28;20054;-79
2022/08/15 06:25:36;;;;;;;6.35;3.70;;;;;;;22.39;68.30;100097.00;6230023;28;20413;-79
2022/08/15 06:28:51;;;;;;;5.07;3.47;;;;;;;22.44;68.34;100098.16;6232625;28;20537;-79
2022/08/15 06:31:58;;;;;;;5.95;4.03;;;;;;;22.50;68.21;100097.44;6235423;28;20520;-79
2022/08/15 06:35:11;;;;;;;4.63;3.78;;;;;;;22.53;68.48;100099.78;6248282;28;20045;-79
2022/08/15 06:38:22;;;;;;;4.82;3.58;;;;;;;22.56;68.39;100092.41;6249910;28;20516;-79
2022/08/15 06:41:31;;;;;;;6.90;3.97;;;;;;;22.58;68.43;100096.59;6228737;28;20049;-80
2022/08/15 06:44:33;;;;;;;5.55;4.10;;;;;;;22.59;67.55;100100.94;6233161;28;20058;-79
2022/08/15 06:47:36;;;;;;;5.82;3.90;;;;;;;22.62;68.03;100107.75;6226745;28;20050;-79
2022/08/15 06:50:41;;;;;;;7.03;3.88;;;;;;;22.67;67.75;100097.38;6228215;28;20056;-80
2022/08/15 06:53:48;;;;;;;5.10;3.22;;;;;;;22.73;67.93;100102.03;6232350;28;20065;-79
2022/08/15 06:57:00;;;;;;;4.60;3.53;;;;;;;22.75;68.75;100097.31;6229986;28;20050;-79
2022/08/15 07:00:09;;;;;;;7.55;3.70;;;;;;;22.76;68.83;100094.47;6230321;28;20053;-79
2022/08/15 07:03:19;;;;;;;5.93;3.95;;;;;;;22.80;68.67;100105.69;6229892;28;20050;-80
2022/08/15 07:06:30;;;;;;;5.97;4.38;;;;;;;22.81;68.31;100104.66;6227077;28;20490;-79
2022/08/15 07:09:46;;;;;;;6.68;3.88;;;;;;;22.83;67.89;100104.47;6225601;28;20057;-79
2022/08/15 07:12:57;;;;;;;5.85;3.58;;;;;;;22.88;68.51;100104.78;6231333;28;20093;-79
2022/08/15 07:16:01;;;;;;;4.22;3.70;;;;;;;22.93;68.69;100099.75;6229642;28;20185;-79
2022/08/15 07:19:04;;;;;;;5.43;3.80;;;;;;;22.98;68.77;100102.72;6242695;28;20053;-79
2022/08/15 07:22:07;;;;;;;7.82;3.85;;;;;;;23.00;68.94;100106.91;6240785;28;20048;-80
2022/08/15 07:25:10;;;;;;;4.82;3.22;;;;;;;23.04;68.42;100105.53;6247614;28;20060;-80
2022/08/15 07:28:13;;;;;;;5.95;3.50;;;;;;;23.10;68.07;100111.19;6240061;28;20053;-78
2022/08/15 07:31:19;;;;;;;6.38;4.07;;;;;;;23.16;67.25;100103.25;6237864;28;20053;-80
2022/08/15 07:34:23;;;;;;;5.72;3.83;;;;;;;23.24;66.98;100102.38;6237013;28;20053;-79
2022/08/15 07:37:32;;;;;;;5.43;3.75;;;;;;;23.33;67.16;100095.09;6235082;28;20053;-79
2022/08/15 07:40:36;;;;;;;4.17;3.20;;;;;;;23.38;66.79;100098.91;6226622;28;20513;-79
2022/08/15 07:43:38;;;;;;;5.40;3.95;;;;;;;23.41;66.09;100092.34;6248145;28;20041;-79
2022/08/15 07:46:44;;;;;;;6.53;4.00;;;;;;;23.42;65.81;100096.69;6250315;28;20072;-80
2022/08/15 07:49:58;;;;;;;12.02;4.18;;;;;;;23.46;65.97;100103.38;6250678;28;20048;-80
2022/08/15 07:53:06;;;;;;;5.10;3.60;;;;;;;23.47;65.64;100103.16;6251099;28;20053;-79
2022/08/15 07:56:12;;;;;;;6.22;3.85;;;;;;;23.49;65.91;100109.22;6240389;28;20445;-78
2022/08/15 07:59:20;;;;;;;4.70;3.88;;;;;;;23.52;65.75;100108.81;6246055;28;20544;-79
2022/08/15 08:02:28;;;;;;;8.43;4.10;;;;;;;23.58;66.52;100109.13;6226580;28;20073;-80
2022/08/15 08:05:37;;;;;;;5.25;3.47;;;;;;;23.62;67.39;100115.78;6225378;28;20049;-80
2022/08/15 08:08:49;;;;;;;5.60;4.00;;;;;;;23.58;67.23;100106.47;6225893;28;20046;-79
2022/08/15 08:11:54;;;;;;;5.95;3.70;;;;;;;23.57;67.52;100102.91;6225801;28;20046;-79
2022/08/15 08:15:07;;;;;;;5.07;3.38;;;;;;;23.62;67.92;100107.72;6226114;28;20160;-79
2022/08/15 08:18:17;;;;;;;9.98;4.65;;;;;;;23.64;67.65;100095.00;6225855;28;20046;-80
2022/08/15 08:21:27;;;;;;;5.70;4.03;;;;;;;23.67;67.06;100095.50;6224953;28;20501;-80
2022/08/15 08:24:47;;;;;;;6.97;3.70;;;;;;;23.67;66.85;100100.03;6225177;28;20136;-79
2022/08/15 08:27:57;;;;;;;7.22;3.97;;;;;;;23.70;68.00;100097.78;6225652;28;20429;-79
2022/08/15 08:31:03;;;;;;;6.60;4.45;;;;;;;23.68;75.25;100107.88;6225056;28;20137;-79
2022/08/15 08:34:14;;;;;;;8.93;5.45;;;;;;;23.57;81.69;100110.13;6224913;28;20042;-79
2022/08/15 08:37:24;;;;;;;6.60;4.97;;;;;;;23.51;83.58;100109.84;6225170;28;20050;-80
2022/08/15 08:44:01;;;;;;;6.03;4.35;;;;;;;23.47;84.33;100103.16;6225163;28;20053;-79
2022/08/15 08:47:24;;;;;;;9.25;4.80;;;;;;;23.50;83.89;100104.66;6225272;28;20510;-79
2022/08/15 08:50:38;;;;;;;6.70;4.40;;;;;;;23.52;83.54;100099.94;6226403;28;20468;-79
2022/08/15 08:53:51;;;;;;;6.20;4.18;;;;;;;23.53;82.30;100094.41;6225907;28;20053;-79
2022/08/15 08:57:00;;;;;;;7.32;4.55;;;;;;;23.57;81.38;100088.66;6225227;28;20050;-79
2022/08/15 09:00:06;;;;;;;7.05;4.47;;;;;;;23.60;79.34;100080.28;6225251;28;20042;-78
2022/08/15 09:03:14;;;;;;;8.77;5.25;;;;;;;23.69;76.83;100076.53;6224219;28;20057;-79
2022/08/15 09:06:21;;;;;;;5.40;4.07;;;;;;;23.80;77.51;100094.88;6223942;28;20056;-80
2022/08/15 09:09:29;;;;;;;10.73;4.97;;;;;;;23.94;74.73;100093.22;6224036;28;20401;-80
2022/08/15 09:16:02;;;;;;;5.85;4.03;;;;;;;24.17;73.65;100099.31;6223954;28;20132;-81
2022/08/15 09:19:12;;;;;;;6.57;4.32;;;;;;;24.28;71.14;100098.81;6224577;28;20053;-80
2022/08/15 09:22:14;;;;;;;6.68;4.22;;;;;;;24.35;67.14;100101.63;6225504;28;20060;-80
2022/08/15 09:25:19;;;;;;;7.93;4.63;;;;;;;24.41;68.75;100106.25;6225494;28;20053;-79
2022/08/15 09:28:29;;;;;;;7.68;4.10;;;;;;;24.49;69.10;100106.16;6224944;28;20054;-78
2022/08/15 09:31:34;;;;;;;7.45;4.57;;;;;;;24.53;67.14;100102.09;6226419;28;20053;-80
2022/08/15 09:34:51;;;;;;;23.20;11.52;;;;;;;24.57;65.63;100107.88;6224926;28;20061;-80
2022/08/15 09:38:24;;;;;;;7.70;5.47;;;;;;;24.60;66.50;100095.94;6224460;28;20049;-80
2022/08/15 09:41:48;;;;;;;5.50;4.15;;;;;;;24.61;65.87;100109.19;6224158;28;20050;-79
2022/08/15 09:45:09;;;;;;;5.85;3.70;;;;;;;24.63;66.92;100104.47;6223510;28;20050;-79
2022/08/15 09:48:24;;;;;;;4.63;3.80;;;;;;;24.62;66.69;100097.44;6225018;28;20054;-79
2022/08/15 09:51:43;;;;;;;7.18;3.83;;;;;;;24.65;66.91;100099.72;6223329;28;20140;-79
2022/08/15 09:54:45;;;;;;;;;;;;;;;24.69;67.20;100106.38;6234374;28;20140;-80
2022/08/15 09:57:50;;;;;;;4.50;3.60;;;;;;;24.70;67.34;100099.16;6241685;28;19921;-80
2022/08/15 10:00:59;;;;;;;5.13;3.50;;;;;;;24.75;65.83;100104.78;6240882;28;20092;-79
2022/08/15 10:04:03;;;;;;;8.40;4.55;;;;;;;24.77;65.77;100100.06;6240802;28;20510;-80
2022/08/15 10:07:33;;;;;;;6.20;3.92;;;;;;;24.81;65.61;100096.00;6248888;28;20061;-80
2022/08/15 10:10:52;;;;;;;6.68;4.03;;;;;;;24.85;65.51;100088.38;6240398;28;20056;-80
2022/08/15 10:14:05;;;;;;;6.72;4.13;;;;;;;24.90;65.16;100083.25;6224053;28;20104;-82
2022/08/15 10:17:27;;;;;;;5.55;3.63;;;;;;;25.00;64.70;100098.03;6224358;28;20081;-80
2022/08/15 10:21:00;;;;;;;6.45;4.43;;;;;;;25.13;63.97;100097.38;6224107;28;20046;-80
2022/08/15 10:24:07;;;;;;;6.68;3.97;;;;;;;25.25;62.92;100095.84;6238295;28;20132;-80
2022/08/15 10:27:20;;;;;;;5.85;3.72;;;;;;;25.40;62.37;100094.94;6241858;28;20041;-80
2022/08/15 10:30:26;;;;;;;4.97;3.97;;;;;;;25.53;59.96;100086.97;6243543;28;20046;-79
2022/08/15 10:33:34;;;;;;;5.05;3.63;;;;;;;25.62;60.25;100077.72;6251253;28;20056;-79
2022/08/15 10:36:36;;;;;;;7.93;3.35;;;;;;;25.73;59.34;100077.16;6252065;28;20065;-79
2022/08/15 10:39:55;;;;;;;7.55;3.67;;;;;;;25.79;58.83;100086.34;6253442;28;20046;-80
2022/08/15 10:43:09;;;;;;;5.47;3.42;;;;;;;25.87;59.06;100078.09;6252640;28;20056;-80
2022/08/15 10:46:25;;;;;;;4.60;3.47;;;;;;;25.98;59.24;100082.09;6256625;28;20054;-80
2022/08/15 10:49:36;;;;;;;5.28;3.42;;;;;;;26.07;57.89;100075.50;6256497;28;20048;-80
2022/08/15 10:52:53;;;;;;;4.22;3.40;;;;;;;26.14;56.99;100059.41;6254817;28;20060;-80
2022/08/15 10:56:07;;;;;;;6.53;3.72;;;;;;;26.32;57.22;100070.47;6255816;28;20438;-80
2022/08/15 10:59:13;;;;;;;6.72;4.13;;;;;;;26.50;56.66;100068.09;6257217;28;20053;-79
2022/08/15 11:02:24;;;;;;;5.53;2.97;;;;;;;26.73;55.78;100072.28;6254265;28;20056;-78
2022/08/15 11:05:27;;;;;;;4.95;3.47;;;;;;;26.95;53.48;100071.09;6252727;28;20049;-78
2022/08/15 11:08:29;;;;;;;5.53;3.45;;;;;;;27.03;53.38;100067.38;6252210;28;20187;-79
2022/08/15 11:11:33;;;;;;;7.97;3.55;;;;;;;27.18;53.86;100062.66;6252094;28;20049;-79
2022/08/15 11:14:39;;;;;;;6.13;3.25;;;;;;;27.50;52.93;100058.28;6251766;28;20057;-78
2022/08/15 11:17:47;;;;;;;5.63;4.25;;;;;;;27.72;51.71;100050.81;6251670;28;20045;-78
2022/08/15 11:20:52;;;;;;;3.60;3.08;;;;;;;27.84;50.82;100050.13;6251333;28;20041;-79
2022/08/15 11:23:56;;;;;;;5.65;3.38;;;;;;;28.06;49.37;100043.44;6251027;28;20133;-79
2022/08/15 11:27:10;;;;;;;5.68;3.28;;;;;;;28.23;48.78;100033.81;6251613;28;20056;-79
2022/08/15 11:30:21;;;;;;;4.03;3.10;;;;;;;28.43;48.24;100035.59;6252114;28;20060;-79
2022/08/15 11:33:27;;;;;;;5.38;3.25;;;;;;;28.69;45.66;100029.22;6251228;28;20448;-78
2022/08/15 11:36:29;;;;;;;4.53;3.30;;;;;;;28.94;45.43;100026.56;6251180;28;20057;-79
2022/08/15 11:39:32;;;;;;;18.27;4.20;;;;;;;29.20;44.34;100018.25;6250405;28;20057;-79
2022/08/15 11:42:36;;;;;;;5.28;3.63;;;;;;;29.44;43.64;100018.47;6250987;28;20060;-79
2022/08/15 11:45:41;;;;;;;5.25;3.22;;;;;;;29.69;42.85;100010.31;6237466;28;20520;-79
2022/08/15 11:48:49;;;;;;;4.80;3.60;;;;;;;29.99;41.99;100018.53;6228748;28;20151;-80
2022/08/15 11:51:51;;;;;;;4.63;3.67;;;;;;;30.22;41.54;100009.72;6225079;28;20042;-80
2022/08/15 11:55:13;;;;;;;4.47;3.08;;;;;;;30.42;39.90;99996.72;6225871;28;20054;-80
2022/08/15 11:58:28;;;;;;;7.95;3.47;;;;;;;30.68;39.78;100002.81;6225466;28;20437;-77
2022/08/15 12:01:32;;;;;;;6.68;3.45;;;;;;;30.72;40.30;100001.31;6230343;28;20042;-78
2022/08/15 12:04:38;;;;;;;4.15;3.28;;;;;;;30.95;40.20;100001.38;6246365;28;20412;-79
2022/08/15 12:07:45;;;;;;;5.35;3.00;;;;;;;31.25;40.14;99997.72;6233512;28;20101;-80
2022/08/15 12:10:46;;;;;;;6.40;3.88;;;;;;;31.58;38.90;99997.16;6225015;28;20046;-80
2022/08/15 12:13:56;;;;;;;4.72;3.63;;;;;;;31.80;38.93;99995.47;6236772;28;20053;-80
2022/08/15 12:17:01;;;;;;;5.93;4.03;;;;;;;31.82;37.83;99990.66;6235433;28;20188;-80
2022/08/15 12:20:05;;;;;;;4.72;3.38;;;;;;;31.65;38.24;99984.28;6241207;28;20535;-80
2022/08/15 12:23:25;;;;;;;5.20;2.90;;;;;;;31.20;38.42;99990.28;6249719;28;20060;-79
2022/08/15 12:26:29;;;;;;;4.22;3.33;;;;;;;30.72;38.85;99988.59;6239886;28;20053;-81
2022/08/15 12:29:32;;;;;;;4.38;2.58;;;;;;;30.30;39.87;99993.16;6238008;28;20045;-79
2022/08/15 12:32:34;;;;;;;5.15;3.30;;;;;;;30.33;40.37;99998.91;6240456;28;20048;-79
2022/08/15 12:35:36;;;;;;;5.38;3.25;;;;;;;30.76;39.03;99991.66;6248990;28;20420;-79
2022/08/15 12:38:39;;;;;;;5.15;3.35;;;;;;;30.95;38.92;99995.13;6242909;28;20050;-78
2022/08/15 12:41:43;;;;;;;5.03;2.60;;;;;;;31.17;37.68;99996.22;6238358;28;20041;-78
2022/08/15 12:44:47;;;;;;;4.30;2.58;;;;;;;31.39;37.40;100007.34;6224472;28;20054;-80
2022/08/15 12:47:49;;;;;;;3.17;2.20;;;;;;;31.42;37.43;100009.56;6224607;28;20046;-79
2022/08/15 12:50:52;;;;;;;5.32;2.25;;;;;;;31.30;38.18;100014.19;6235827;28;20528;-77
2022/08/15 12:53:54;;;;;;;2.85;2.05;;;;;;;31.55;37.58;100003.91;6241487;28;20061;-78
2022/08/15 12:56:55;;;;;;;3.05;2.00;;;;;;;31.77;36.33;100004.09;6249274;28;20139;-77
2022/08/15 12:59:56;;;;;;;2.92;2.47;;;;;;;31.63;36.52;99993.75;6249042;28;20056;-77
2022/08/15 13:02:58;;;;;;;5.43;3.05;;;;;;;31.75;37.00;99994.53;6249202;28;20053;-78
2022/08/15 13:06:05;;;;;;;4.00;1.88;;;;;;;31.99;36.14;99998.06;6249505;28;20053;-78
2022/08/15 13:09:08;;;;;;;4.20;2.20;;;;;;;31.86;35.99;100012.75;6249560;28;20715;-77
2022/08/15 13:12:11;;;;;;;2.90;2.05;;;;;;;30.92;36.99;100020.00;6248581;28;20076;-79
2022/08/15 13:15:12;;;;;;;7.63;2.30;;;;;;;30.68;37.14;100013.66;6248430;28;20126;-77
2022/08/15 13:18:18;;;;;;;4.53;2.10;;;;;;;30.88;37.63;100016.09;6248725;28;20041;-78
2022/08/15 13:24:40;;;;;;;3.13;2.58;;;;;;;31.02;36.63;100025.69;6249303;28;20053;-79
2022/08/15 13:27:44;;;;;;;3.55;2.60;;;;;;;31.08;36.17;100027.47;6248794;28;20469;-79
2022/08/15 13:30:45;;;;;;;3.78;2.30;;;;;;;31.41;36.14;100032.38;6248542;28;20057;-76
2022/08/15 13:33:47;;;;;;;4.20;2.30;;;;;;;31.66;34.03;100029.41;6248284;28;20501;-78
2022/08/15 13:36:51;;;;;;;4.45;2.45;;;;;;;31.92;33.49;100038.13;6248535;28;20049;-78
2022/08/15 13:39:53;;;;;;;2.30;2.10;;;;;;;31.97;33.28;100030.09;6248529;28;20508;-78
2022/08/15 13:42:58;;;;;;;2.03;1.70;;;;;;;31.18;33.05;100046.72;6248770;28;20140;-79
2022/08/15 13:46:01;;;;;;;2.08;1.67;;;;;;;31.01;33.10;100040.31;6248498;28;20056;-79
2022/08/15 13:49:03;;;;;;;4.15;1.98;;;;;;;31.16;32.34;100045.28;6248262;28;20060;-77
2022/08/15 13:52:06;;;;;;;1.63;1.17;;;;;;;31.30;32.15;100052.22;6248154;28;20134;-79
2022/08/15 13:55:08;;;;;;;1.40;1.20;;;;;;;31.43;31.13;100054.69;6248676;28;20049;-79
2022/08/15 13:58:09;;;;;;;2.20;1.30;;;;;;;31.31;31.62;100054.69;6248317;28;20049;-79
2022/08/15 14:01:12;;;;;;;2.90;1.95;;;;;;;31.65;30.64;100068.50;6248150;28;20413;-78
2022/08/15 14:04:16;;;;;;;2.20;1.38;;;;;;;31.50;31.77;100060.81;6248196;28;20053;-79
2022/08/15 14:07:19;;;;;;;1.60;1.45;;;;;;;31.07;31.89;100061.13;6247382;28;20464;-79
2022/08/15 14:10:24;;;;;;;3.03;1.40;;;;;;;30.89;32.58;100056.59;6247543;28;20053;-80
2022/08/15 14:13:25;;;;;;;1.20;1.10;;;;;;;30.68;34.02;100057.91;6247223;28;20049;-78
2022/08/15 14:16:30;;;;;;;2.70;1.83;;;;;;;29.99;38.45;100073.56;6247102;28;20068;-79
2022/08/15 14:19:32;;;;;;;2.67;2.10;;;;;;;29.87;39.82;100069.09;6249107;28;20053;-78
2022/08/15 14:22:35;;;;;;;1.90;1.55;;;;;;;29.79;41.07;100068.31;6253007;28;20071;-79
2022/08/15 14:25:38;;;;;;;2.05;1.85;;;;;;;29.66;42.22;100076.63;6251864;28;20049;-79
2022/08/15 14:28:39;;;;;;;2.92;1.98;;;;;;;29.06;44.34;100085.19;6252028;28;20485;-79
2022/08/15 14:31:40;;;;;;;3.17;2.03;;;;;;;28.29;47.76;100076.19;6251801;28;20051;-79
2022/08/15 14:34:44;;;;;;;3.60;2.40;;;;;;;28.18;49.00;100084.13;6251980;28;20056;-79
2022/08/15 14:37:50;;;;;;;3.05;2.28;;;;;;;27.71;50.50;100086.09;6251651;28;20052;-80